KFET/FET METAR and TAF weather

Enter ICAO airport designator
Station Type Date Time Source
KFET METAR 2019/02/17 15:35 UTC NOAA

KFET 171535Z AUTO 31009KT 10SM SCT033 BKN041 OVC050 M07/M09 A2988 RMK AO2 T10671090


Station Type Date Time Source
KFET Decoded METAR 2019/02/17 15:35 UTC NOAA

Fremont Municipal Airport, NE, United States (KFET) 41-27N 096-31W
Feb 17, 2019 - 10:35 AM EST / 2019.02.17 1535 UTC
Wind: from the NW (310 degrees) at 10 MPH (9 KT):0
Visibility: 10 mile(s):0
Sky conditions: overcast
Temperature: 19.9 F (-6.7 C)
Windchill: 8 F (-13 C):1
Dew Point: 15.8 F (-9.0 C)
Relative Humidity: 83%
Pressure (altimeter): 29.88 in. Hg (1011 hPa)
ob: KFET 171535Z AUTO 31009KT 10SM SCT033 BKN041 OVC050 M07/M09 A2988 RMK AO2 T10671090
cycle: 15

Station Type Date Time Source
KFET TAF UTC NOAA

Error!


Example: see airport list